createdAt,value
2023-03-11T00:01:12.622Z,9.23
2023-03-11T00:03:46.312Z,8.67
2023-03-11T00:06:14.077Z,11.93
2023-03-11T00:08:42.117Z,9.03
2023-03-11T00:11:09.863Z,9.50
2023-03-11T00:13:40.887Z,8.90
2023-03-11T00:16:08.717Z,9.43
2023-03-11T00:18:36.498Z,8.87
2023-03-11T00:21:04.404Z,8.27
2023-03-11T00:23:32.641Z,8.97
2023-03-11T00:26:03.175Z,11.10
2023-03-11T00:28:34.026Z,9.07
2023-03-11T00:31:04.099Z,7.50
2023-03-11T00:33:32.338Z,7.33
2023-03-11T00:36:00.097Z,8.77
2023-03-11T00:38:27.937Z,9.50
2023-03-11T00:40:55.760Z,10.23
2023-03-11T00:43:23.768Z,9.83
2023-03-11T00:45:51.488Z,9.40
2023-03-11T00:48:20.603Z,8.20
2023-03-11T00:50:48.373Z,8.27
2023-03-11T00:53:16.139Z,8.03
2023-03-11T00:55:43.862Z,8.80
2023-03-11T00:58:12.233Z,11.87
2023-03-11T01:00:40.041Z,8.40
2023-03-11T01:05:56.008Z,8.80
2023-03-11T01:08:23.720Z,8.33
2023-03-11T01:10:51.490Z,8.07
2023-03-11T01:13:19.288Z,10.07
2023-03-11T01:15:47.074Z,10.07
2023-03-11T01:18:15.656Z,7.30
2023-03-11T01:20:43.756Z,9.40
2023-03-11T01:23:13.845Z,7.80
2023-03-11T01:25:41.615Z,8.87
2023-03-11T01:28:09.853Z,7.97
2023-03-11T01:30:39.264Z,9.00
2023-03-11T01:33:07.926Z,10.30
2023-03-11T01:35:36.219Z,10.83
2023-03-11T01:38:04.022Z,7.83
2023-03-11T01:40:35.860Z,9.70
2023-03-11T01:43:05.477Z,8.93
2023-03-11T01:46:04.150Z,9.37
2023-03-11T01:48:31.921Z,10.33
2023-03-11T01:51:00.059Z,8.20
2023-03-11T01:53:27.888Z,7.70
2023-03-11T01:55:57.179Z,8.43
2023-03-11T01:58:26.430Z,8.83
2023-03-11T02:00:54.444Z,9.37
2023-03-11T02:03:27.433Z,9.77
2023-03-11T02:05:55.482Z,9.77
2023-03-11T02:08:23.314Z,10.00
2023-03-11T02:10:51.623Z,8.63
2023-03-11T02:13:20.930Z,8.17
2023-03-11T02:15:48.740Z,9.50
2023-03-11T02:18:18.589Z,8.53
2023-03-11T02:20:48.545Z,7.37
2023-03-11T02:23:17.412Z,7.77
2023-03-11T02:25:49.531Z,7.77
2023-03-11T02:28:19.921Z,9.70
2023-03-11T02:30:48.568Z,7.47
2023-03-11T02:33:17.049Z,8.00
2023-03-11T02:35:44.991Z,6.60
2023-03-11T02:38:14.056Z,6.93
2023-03-11T02:40:51.843Z,8.53
2023-03-11T02:43:24.556Z,8.93
2023-03-11T02:45:52.387Z,8.90
2023-03-11T02:48:20.704Z,8.37
2023-03-11T02:50:48.947Z,8.83
2023-03-11T02:53:17.185Z,9.57
2023-03-11T02:55:45.008Z,8.77
2023-03-11T02:58:12.756Z,9.23
2023-03-11T03:00:42.008Z,6.60
2023-03-11T03:03:10.620Z,6.87
2023-03-11T03:05:38.488Z,8.10
2023-03-11T03:08:06.474Z,7.97
2023-03-11T03:10:34.386Z,7.40
2023-03-11T03:13:02.137Z,8.73
2023-03-11T03:15:30.395Z,11.23
2023-03-11T03:17:59.634Z,7.23
2023-03-11T03:20:27.513Z,10.03
2023-03-11T03:22:55.344Z,9.43
2023-03-11T03:25:23.504Z,8.23
2023-03-11T03:27:51.536Z,6.00
2023-03-11T03:30:19.476Z,6.80
2023-03-11T03:32:47.315Z,10.10
2023-03-11T03:35:16.517Z,8.70
2023-03-11T03:37:44.248Z,8.97
2023-03-11T03:40:12.998Z,7.20
2023-03-11T03:42:41.494Z,10.97
2023-03-11T03:45:10.807Z,8.57
2023-03-11T03:47:38.540Z,9.67
2023-03-11T03:50:08.662Z,8.90
2023-03-11T03:52:37.885Z,7.70
2023-03-11T03:55:06.473Z,10.73
2023-03-11T03:57:34.352Z,8.57
2023-03-11T04:00:02.115Z,8.30
2023-03-11T04:02:30.011Z,9.70
2023-03-11T04:04:58.351Z,8.77
2023-03-11T04:07:26.130Z,8.03
2023-03-11T04:09:55.166Z,8.97
2023-03-11T04:12:22.897Z,10.17
2023-03-11T04:14:50.890Z,9.27
2023-03-11T04:17:18.807Z,9.97
2023-03-11T04:19:46.691Z,10.80
2023-03-11T04:22:14.506Z,8.00
2023-03-11T04:24:42.333Z,9.33
2023-03-11T04:27:11.486Z,7.83
2023-03-11T04:29:39.299Z,7.87
2023-03-11T04:32:07.637Z,9.30
2023-03-11T04:34:35.449Z,10.87
2023-03-11T04:37:03.148Z,8.70
2023-03-11T04:39:30.889Z,9.13
2023-03-11T04:41:58.647Z,9.07
2023-03-11T04:44:27.831Z,9.47
2023-03-11T04:46:56.670Z,9.47
2023-03-11T04:49:24.444Z,9.97
2023-03-11T04:51:52.147Z,10.00
2023-03-11T04:54:20.034Z,10.47
2023-03-11T04:56:47.848Z,7.40
2023-03-11T04:59:15.639Z,8.07
2023-03-11T05:01:44.816Z,9.10
2023-03-11T05:04:13.016Z,9.60
2023-03-11T05:06:40.836Z,10.33
2023-03-11T05:09:08.606Z,10.63
2023-03-11T05:11:36.341Z,9.93
2023-03-11T05:14:04.093Z,9.37
2023-03-11T05:16:31.894Z,10.07
2023-03-11T05:19:01.143Z,10.93
2023-03-11T05:21:28.925Z,9.17
2023-03-11T05:23:56.794Z,8.23
2023-03-11T05:26:24.542Z,12.83
2023-03-11T05:28:52.252Z,12.33
2023-03-11T05:31:20.085Z,11.03
2023-03-11T05:33:47.982Z,11.03
2023-03-11T05:36:17.073Z,10.67
2023-03-11T05:38:44.872Z,8.43
2023-03-11T05:41:12.682Z,9.27
2023-03-11T05:43:40.397Z,9.20
2023-03-11T05:46:08.284Z,9.87
2023-03-11T05:48:36.423Z,10.17
2023-03-11T05:51:08.095Z,9.23
2023-03-11T05:53:37.688Z,8.40
2023-03-11T05:56:06.520Z,9.63
2023-03-11T05:58:35.100Z,10.83
2023-03-11T06:01:02.851Z,10.07
2023-03-11T06:06:20.446Z,10.73
2023-03-11T06:08:50.293Z,8.90
2023-03-11T06:11:19.680Z,9.20
2023-03-11T06:13:47.569Z,11.27
2023-03-11T06:16:15.396Z,9.80
2023-03-11T06:18:43.302Z,11.97
2023-03-11T06:21:12.470Z,11.13
2023-03-11T06:23:40.642Z,11.67
2023-03-11T06:26:11.029Z,9.07
2023-03-11T06:28:38.774Z,8.93
2023-03-11T06:31:10.834Z,10.23
2023-03-11T06:33:38.910Z,11.33
2023-03-11T06:36:07.791Z,12.13
2023-03-11T06:38:37.449Z,7.40
2023-03-11T06:41:06.841Z,9.00
2023-03-11T06:43:36.488Z,9.43
2023-03-11T06:46:10.152Z,12.23
2023-03-11T06:48:38.007Z,8.23
2023-03-11T06:51:06.414Z,12.03
2023-03-11T06:53:34.570Z,10.40
2023-03-11T06:56:04.777Z,10.83
2023-03-11T06:58:35.837Z,10.53
2023-03-11T07:01:04.826Z,15.40
2023-03-11T07:03:33.151Z,11.37
2023-03-11T07:06:01.110Z,10.10
2023-03-11T07:08:29.199Z,8.43
2023-03-11T07:11:08.029Z,8.30
2023-03-11T07:13:37.749Z,11.63
2023-03-11T07:16:07.822Z,9.83
2023-03-11T07:18:36.758Z,11.30
2023-03-11T07:21:05.830Z,10.93
2023-03-11T07:23:33.967Z,9.23
2023-03-11T07:26:02.041Z,9.57
2023-03-11T07:28:30.707Z,9.23
2023-03-11T07:30:59.882Z,7.10
2023-03-11T07:33:27.695Z,8.77
2023-03-11T07:35:55.651Z,8.93
2023-03-11T07:38:23.724Z,9.97
2023-03-11T07:40:59.411Z,8.47
2023-03-11T07:43:27.298Z,8.27
2023-03-11T07:46:05.244Z,13.00
2023-03-11T07:48:33.239Z,9.53
2023-03-11T07:51:02.638Z,8.83
2023-03-11T07:53:30.442Z,8.97
2023-03-11T07:55:58.512Z,7.23
2023-03-11T07:58:26.740Z,7.13
2023-03-11T08:00:56.833Z,10.70
2023-03-11T08:03:26.070Z,10.20
2023-03-11T08:05:54.094Z,8.60
2023-03-11T08:08:21.897Z,8.07
2023-03-11T08:10:49.673Z,8.97
2023-03-11T08:13:17.427Z,9.30
2023-03-11T08:15:45.201Z,7.07
2023-03-11T08:18:13.657Z,8.70
2023-03-11T08:20:45.197Z,9.43
2023-03-11T08:23:13.329Z,9.70
2023-03-11T08:25:41.641Z,8.17
2023-03-11T08:28:10.098Z,6.17
2023-03-11T08:30:38.190Z,8.07
2023-03-11T08:33:06.148Z,10.37
2023-03-11T08:35:34.103Z,9.07
2023-03-11T08:38:03.386Z,10.60
2023-03-11T08:40:31.120Z,6.50
2023-03-11T08:42:58.937Z,6.67
2023-03-11T08:45:26.988Z,12.03
2023-03-11T08:47:54.760Z,15.57
2023-03-11T08:50:22.692Z,9.00
2023-03-11T08:52:50.554Z,9.73
2023-03-11T08:55:25.044Z,9.20
2023-03-11T08:57:52.877Z,7.83
2023-03-11T09:00:21.645Z,6.27
2023-03-11T09:02:49.518Z,7.17
2023-03-11T09:05:18.761Z,7.80
2023-03-11T09:07:46.772Z,6.77
2023-03-11T09:10:16.000Z,7.57
2023-03-11T09:12:45.258Z,8.17
2023-03-11T09:15:13.385Z,7.00
2023-03-11T09:17:41.130Z,8.30
2023-03-11T09:20:09.895Z,8.37
2023-03-11T09:22:37.661Z,8.80
2023-03-11T09:25:06.024Z,7.57
2023-03-11T09:27:33.833Z,7.33
2023-03-11T09:30:02.968Z,6.90
2023-03-11T09:32:30.787Z,6.80
2023-03-11T09:34:59.694Z,5.70
2023-03-11T09:37:29.880Z,10.53
2023-03-11T09:39:57.631Z,7.50
2023-03-11T09:42:32.040Z,9.27
2023-03-11T09:45:04.379Z,11.10
2023-03-11T09:47:39.157Z,9.07
2023-03-11T09:50:15.117Z,8.93
2023-03-11T09:52:46.578Z,7.60
2023-03-11T09:55:33.987Z,7.07
2023-03-11T09:58:05.794Z,9.13
2023-03-11T10:00:35.013Z,8.97
2023-03-11T10:03:03.292Z,8.20
2023-03-11T10:05:31.295Z,10.43
2023-03-11T10:08:10.177Z,7.43
2023-03-11T10:10:43.135Z,8.57
2023-03-11T10:13:15.594Z,8.17
2023-03-11T10:15:50.156Z,8.43
2023-03-11T10:18:31.238Z,8.10
2023-03-11T10:21:02.794Z,7.50
2023-03-11T10:23:38.874Z,6.07
2023-03-11T10:26:12.624Z,9.30
2023-03-11T10:28:43.990Z,8.70
2023-03-11T10:31:21.776Z,11.23
2023-03-11T10:33:51.920Z,8.40
2023-03-11T10:36:24.172Z,8.10
2023-03-11T10:38:53.586Z,8.73
2023-03-11T10:41:24.447Z,9.27
2023-03-11T10:43:57.987Z,6.73
2023-03-11T10:46:29.347Z,7.07
2023-03-11T10:48:57.526Z,7.97
2023-03-11T10:51:26.859Z,11.63
2023-03-11T10:53:56.359Z,9.57
2023-03-11T10:56:32.565Z,7.80
2023-03-11T10:59:00.808Z,7.53
2023-03-11T11:01:30.842Z,7.13
2023-03-11T11:04:00.826Z,5.47
2023-03-11T11:06:30.172Z,6.47
2023-03-11T11:09:22.959Z,6.53
2023-03-11T11:12:11.272Z,6.43
2023-03-11T11:14:46.520Z,8.07
2023-03-11T11:17:25.108Z,7.47
2023-03-11T11:19:53.492Z,7.60
2023-03-11T11:22:22.743Z,6.77
2023-03-11T11:24:52.346Z,7.60
2023-03-11T11:27:21.885Z,8.17
2023-03-11T11:30:05.230Z,7.27
2023-03-11T11:32:34.466Z,9.17
2023-03-11T11:35:03.794Z,7.27
2023-03-11T11:37:33.869Z,7.03
2023-03-11T11:40:11.517Z,7.77
2023-03-11T11:42:40.552Z,6.73
2023-03-11T11:45:15.296Z,6.70
2023-03-11T11:47:46.215Z,7.20
2023-03-11T11:50:19.785Z,6.30
2023-03-11T11:52:51.033Z,8.83
2023-03-11T11:55:22.408Z,8.20
2023-03-11T11:57:51.353Z,6.20
2023-03-11T12:00:21.085Z,5.80
2023-03-11T12:03:07.261Z,8.07
2023-03-11T12:05:52.930Z,6.00
2023-03-11T12:08:23.984Z,6.60
2023-03-11T12:10:55.859Z,7.90
2023-03-11T12:13:34.070Z,7.20
2023-03-11T12:16:04.819Z,5.77
2023-03-11T12:18:38.411Z,5.97
2023-03-11T12:21:14.891Z,5.70
2023-03-11T12:23:54.763Z,5.50
2023-03-11T12:26:24.326Z,5.77
2023-03-11T12:28:55.275Z,7.30
2023-03-11T12:31:24.425Z,7.40
2023-03-11T12:33:58.828Z,7.23
2023-03-11T12:36:31.213Z,6.97
2023-03-11T12:38:59.710Z,5.47
2023-03-11T12:41:45.454Z,7.63
2023-03-11T12:44:24.825Z,4.43
2023-03-11T12:47:30.901Z,4.73
2023-03-11T12:50:31.719Z,7.03
2023-03-11T12:53:01.105Z,6.03
2023-03-11T12:55:34.779Z,5.17
2023-03-11T12:58:23.926Z,8.00
2023-03-11T13:01:04.687Z,6.50
2023-03-11T13:03:37.427Z,5.67
2023-03-11T13:06:17.822Z,5.70
2023-03-11T13:08:49.678Z,6.13
2023-03-11T13:11:37.939Z,9.17
2023-03-11T13:14:28.863Z,6.27
2023-03-11T13:16:56.808Z,8.33
2023-03-11T13:19:36.451Z,7.63
2023-03-11T13:22:06.066Z,7.27
2023-03-11T13:24:52.302Z,8.07
2023-03-11T13:27:38.569Z,7.73
2023-03-11T13:30:12.289Z,6.03
2023-03-11T13:32:57.002Z,8.20
2023-03-11T13:35:45.688Z,9.07
2023-03-11T13:38:22.041Z,7.03
2023-03-11T13:40:52.553Z,6.27
2023-03-11T13:43:21.896Z,7.57
2023-03-11T13:45:52.634Z,7.50
2023-03-11T13:48:23.816Z,9.63
2023-03-11T13:50:54.536Z,6.57
2023-03-11T13:53:25.890Z,10.67
2023-03-11T13:55:55.170Z,10.10
2023-03-11T13:58:24.522Z,8.27
2023-03-11T14:00:54.330Z,10.37
2023-03-11T14:03:25.318Z,8.97
2023-03-11T14:05:59.949Z,8.07
2023-03-11T14:08:29.977Z,9.73
2023-03-11T14:11:00.732Z,8.10
2023-03-11T14:13:29.458Z,8.27
2023-03-11T14:16:03.707Z,9.23
2023-03-11T14:18:41.783Z,7.53
2023-03-11T14:21:14.229Z,11.17
2023-03-11T14:23:44.582Z,8.53
2023-03-11T14:26:18.001Z,8.20
2023-03-11T14:28:48.115Z,8.37
2023-03-11T14:31:25.547Z,8.30
2023-03-11T14:33:57.669Z,11.87
2023-03-11T14:36:25.480Z,9.30
2023-03-11T14:38:53.284Z,9.77
2023-03-11T14:41:22.454Z,10.70
2023-03-11T14:43:52.598Z,10.13
2023-03-11T14:46:23.829Z,9.77
2023-03-11T14:48:52.220Z,10.43
2023-03-11T14:51:25.292Z,11.87
2023-03-11T14:53:57.646Z,10.53
2023-03-11T14:56:28.758Z,10.87
2023-03-11T14:59:07.297Z,11.37
2023-03-11T15:01:40.973Z,10.77
2023-03-11T15:07:11.247Z,8.90
2023-03-11T15:09:40.884Z,10.93
2023-03-11T15:12:31.477Z,8.73
2023-03-11T15:14:59.376Z,11.00
2023-03-11T15:17:37.796Z,9.93
2023-03-11T15:20:24.872Z,11.47
2023-03-11T15:22:58.220Z,10.00
2023-03-11T15:25:26.115Z,9.87
2023-03-11T15:27:55.790Z,10.83
2023-03-11T15:30:25.825Z,10.27
2023-03-11T15:32:53.938Z,10.23
2023-03-11T15:35:23.566Z,11.27
2023-03-11T15:37:53.142Z,8.37
2023-03-11T15:40:35.328Z,10.33
2023-03-11T15:43:29.538Z,9.97
2023-03-11T15:45:58.585Z,8.90
2023-03-11T15:48:27.907Z,9.27
2023-03-11T15:50:57.162Z,9.80
2023-03-11T15:53:27.210Z,8.67
2023-03-11T15:55:56.098Z,11.27
2023-03-11T15:58:24.126Z,10.77
2023-03-11T16:00:55.998Z,9.50
2023-03-11T16:03:24.560Z,11.33
2023-03-11T16:05:52.347Z,9.93
2023-03-11T16:08:20.188Z,12.73
2023-03-11T16:10:48.014Z,9.67
2023-03-11T16:13:16.662Z,10.83
2023-03-11T16:15:46.877Z,8.77
2023-03-11T16:18:16.107Z,10.67
2023-03-11T16:20:46.263Z,11.40
2023-03-11T16:23:18.134Z,11.07
2023-03-11T16:25:46.235Z,11.53
2023-03-11T16:28:15.044Z,11.00
2023-03-11T16:30:43.076Z,10.20
2023-03-11T16:33:10.895Z,11.80
2023-03-11T16:35:40.221Z,10.73
2023-03-11T16:38:08.586Z,11.63
2023-03-11T16:40:36.464Z,11.43
2023-03-11T16:43:06.141Z,9.77
2023-03-11T16:45:33.974Z,10.50
2023-03-11T16:48:01.790Z,10.13
2023-03-11T16:50:29.585Z,10.77
2023-03-11T16:52:59.660Z,10.93
2023-03-11T16:55:28.975Z,9.63
2023-03-11T16:57:57.487Z,9.30
2023-03-11T17:00:25.747Z,9.63
2023-03-11T17:02:53.936Z,9.83
2023-03-11T17:05:22.022Z,8.87
2023-03-11T17:07:49.946Z,9.63
2023-03-11T17:10:19.294Z,10.67
2023-03-11T17:12:47.105Z,11.07
2023-03-11T17:15:14.946Z,9.20
2023-03-11T17:17:42.675Z,10.63
2023-03-11T17:20:11.992Z,9.80
2023-03-11T17:22:40.123Z,11.27
2023-03-11T17:25:09.022Z,12.37
2023-03-11T17:27:38.158Z,11.93
2023-03-11T17:30:07.138Z,12.40
2023-03-11T17:32:35.030Z,12.20
2023-03-11T17:35:02.930Z,11.73
2023-03-11T17:37:30.781Z,14.43
2023-03-11T17:39:58.579Z,13.80
2023-03-11T17:42:26.574Z,13.07
2023-03-11T17:44:57.858Z,14.80
2023-03-11T17:47:26.998Z,16.30
2023-03-11T17:49:55.081Z,16.03
2023-03-11T17:52:22.812Z,16.80
2023-03-11T17:54:52.062Z,15.47
2023-03-11T17:57:19.906Z,15.37
2023-03-11T17:59:51.030Z,13.27
2023-03-11T18:02:20.544Z,13.00
2023-03-11T18:07:23.746Z,15.60
2023-03-11T18:09:52.670Z,12.77
2023-03-11T18:12:20.918Z,11.10
2023-03-11T18:14:48.643Z,13.43
2023-03-11T18:17:18.360Z,12.17
2023-03-11T18:19:48.046Z,13.63
2023-03-11T18:22:16.539Z,13.20
2023-03-11T18:24:45.485Z,14.97
2023-03-11T18:27:13.274Z,14.20
2023-03-11T18:29:41.138Z,15.30
2023-03-11T18:32:08.950Z,14.97
2023-03-11T18:34:38.635Z,15.87
2023-03-11T18:37:07.761Z,12.13
2023-03-11T18:39:38.526Z,10.37
2023-03-11T18:42:08.031Z,8.60
2023-03-11T18:44:36.976Z,11.07
2023-03-11T18:47:05.027Z,8.40
2023-03-11T18:49:32.834Z,7.27
2023-03-11T18:52:00.751Z,6.27
2023-03-11T18:54:30.009Z,6.03
2023-03-11T18:56:57.750Z,4.53
2023-03-11T18:59:27.489Z,4.30
2023-03-11T19:01:55.415Z,4.30
2023-03-11T19:04:24.427Z,2.93
2023-03-11T19:06:52.182Z,3.73
2023-03-11T19:09:19.892Z,4.20
2023-03-11T19:11:49.002Z,3.90
2023-03-11T19:14:16.752Z,3.37
2023-03-11T19:16:44.702Z,3.00
2023-03-11T19:19:12.444Z,3.60
2023-03-11T19:21:40.259Z,2.70
2023-03-11T19:24:08.141Z,3.07
2023-03-11T19:26:44.693Z,2.73
2023-03-11T19:29:14.917Z,3.07
2023-03-11T19:31:43.414Z,3.77
2023-03-11T19:34:11.244Z,3.57
2023-03-11T19:36:39.184Z,3.17
2023-03-11T19:39:07.309Z,3.63
2023-03-11T19:41:35.519Z,3.67
2023-03-11T19:44:04.208Z,3.00
2023-03-11T19:46:34.776Z,3.70
2023-03-11T19:49:03.152Z,3.60
2023-03-11T19:51:46.577Z,5.30
2023-03-11T19:54:17.116Z,4.37
2023-03-11T19:56:44.956Z,3.50
2023-03-11T19:59:12.878Z,4.00
2023-03-11T20:01:42.875Z,4.33
2023-03-11T20:04:11.166Z,4.50
2023-03-11T20:06:39.065Z,5.77
2023-03-11T20:09:07.022Z,5.63
2023-03-11T20:11:34.857Z,4.00
2023-03-11T20:14:02.607Z,5.60
2023-03-11T20:16:30.515Z,3.93
2023-03-11T20:18:59.771Z,4.37
2023-03-11T20:21:27.835Z,4.60
2023-03-11T20:23:56.133Z,3.70
2023-03-11T20:26:24.907Z,3.70
2023-03-11T20:28:56.351Z,4.03
2023-03-11T20:31:26.979Z,3.43
2023-03-11T20:33:55.297Z,3.70
2023-03-11T20:36:26.345Z,3.37
2023-03-11T20:38:55.885Z,3.93
2023-03-11T20:41:24.626Z,4.73
2023-03-11T20:43:52.669Z,2.67
2023-03-11T20:46:20.873Z,3.70
2023-03-11T20:48:48.831Z,3.73
2023-03-11T20:51:19.541Z,3.87
2023-03-11T20:53:49.238Z,3.27
2023-03-11T20:56:20.455Z,3.13
2023-03-11T20:58:50.946Z,3.20
2023-03-11T21:01:20.965Z,3.20
2023-03-11T21:03:49.122Z,2.50
2023-03-11T21:06:18.995Z,2.73
2023-03-11T21:08:48.247Z,2.60
2023-03-11T21:11:16.369Z,2.50
2023-03-11T21:13:44.233Z,3.73
2023-03-11T21:16:12.738Z,3.87
2023-03-11T21:18:41.117Z,3.00
2023-03-11T21:21:11.582Z,3.23
2023-03-11T21:23:39.870Z,3.10
2023-03-11T21:26:09.510Z,3.70
2023-03-11T21:28:38.888Z,4.00
2023-03-11T21:31:08.085Z,3.60
2023-03-11T21:33:35.939Z,3.10
2023-03-11T21:36:04.083Z,3.10
2023-03-11T21:38:32.176Z,3.10
2023-03-11T21:41:06.922Z,3.47
2023-03-11T21:43:36.430Z,3.30
2023-03-11T21:46:04.811Z,3.33
2023-03-11T21:48:33.036Z,3.70
2023-03-11T21:51:01.065Z,3.90
2023-03-11T21:53:29.004Z,4.40
2023-03-11T21:55:56.873Z,4.20
2023-03-11T21:58:24.696Z,4.03
2023-03-11T22:00:54.087Z,4.87
2023-03-11T22:03:22.124Z,4.60
2023-03-11T22:05:50.099Z,5.13
2023-03-11T22:08:17.918Z,4.87
2023-03-11T22:10:45.782Z,4.67
2023-03-11T22:13:13.552Z,4.57
2023-03-11T22:15:41.410Z,5.10
2023-03-11T22:18:10.890Z,5.37
2023-03-11T22:20:40.812Z,5.00
2023-03-11T22:23:09.025Z,5.17
2023-03-11T22:25:37.143Z,4.83
2023-03-11T22:28:05.465Z,4.47
2023-03-11T22:30:33.344Z,5.07
2023-03-11T22:33:01.214Z,5.67
2023-03-11T22:35:30.449Z,4.30
2023-03-11T22:37:58.322Z,5.10
2023-03-11T22:40:27.372Z,4.33
2023-03-11T22:42:55.494Z,3.80
2023-03-11T22:45:23.478Z,3.13
2023-03-11T22:47:51.333Z,2.53
2023-03-11T22:50:19.618Z,3.10
2023-03-11T22:52:48.675Z,2.83
2023-03-11T22:55:16.596Z,2.60
2023-03-11T22:57:44.584Z,2.20
2023-03-11T23:00:17.273Z,1.90
2023-03-11T23:02:45.929Z,1.80
2023-03-11T23:07:50.815Z,2.00
2023-03-11T23:10:21.242Z,2.60
2023-03-11T23:12:49.648Z,1.57
2023-03-11T23:15:18.980Z,3.27
2023-03-11T23:17:47.058Z,1.60
2023-03-11T23:20:16.389Z,1.60
2023-03-11T23:22:44.772Z,1.63
2023-03-11T23:25:16.984Z,1.87
2023-03-11T23:27:45.797Z,2.33
2023-03-11T23:30:15.346Z,1.27
2023-03-11T23:32:43.442Z,1.50
2023-03-11T23:35:11.844Z,1.60
2023-03-11T23:37:39.732Z,1.27
2023-03-11T23:40:09.444Z,1.57
2023-03-11T23:42:38.622Z,1.10
2023-03-11T23:45:07.311Z,1.83
2023-03-11T23:47:35.089Z,1.40
2023-03-11T23:50:02.998Z,1.40
2023-03-11T23:52:30.891Z,1.20
2023-03-11T23:54:58.607Z,2.50
2023-03-11T23:57:26.379Z,2.40
2023-03-11T23:59:55.457Z,1.97
